createdAt,value
2023-05-05T00:00:40.893Z,16.54
2023-05-05T00:02:43.979Z,16.54
2023-05-05T00:04:47.283Z,16.53
2023-05-05T00:06:50.029Z,16.49
2023-05-05T00:08:54.150Z,16.46
2023-05-05T00:10:57.527Z,16.41
2023-05-05T00:13:00.625Z,16.44
2023-05-05T00:15:03.511Z,16.45
2023-05-05T00:17:06.341Z,16.43
2023-05-05T00:19:09.287Z,16.44
2023-05-05T00:21:12.077Z,16.46
2023-05-05T00:23:15.244Z,16.49
2023-05-05T00:25:19.386Z,16.54
2023-05-05T00:27:22.402Z,16.54
2023-05-05T00:29:25.248Z,16.52
2023-05-05T00:31:28.156Z,16.52
2023-05-05T00:33:31.203Z,16.49
2023-05-05T00:35:34.079Z,16.49
2023-05-05T00:37:37.447Z,16.50
2023-05-05T00:39:40.202Z,16.49
2023-05-05T00:41:44.366Z,16.49
2023-05-05T00:43:47.201Z,16.49
2023-05-05T00:45:58.146Z,16.49
2023-05-05T00:48:02.125Z,16.47
2023-05-05T00:50:05.351Z,16.47
2023-05-05T00:52:09.396Z,16.45
2023-05-05T00:54:12.232Z,16.43
2023-05-05T00:56:16.556Z,16.39
2023-05-05T00:58:21.855Z,16.34
2023-05-05T01:00:25.049Z,16.31
2023-05-05T01:02:27.997Z,16.39
2023-05-05T01:04:30.880Z,16.31
2023-05-05T01:06:47.764Z,16.31
2023-05-05T01:09:04.207Z,16.27
2023-05-05T01:11:15.313Z,16.24
2023-05-05T01:13:31.372Z,16.25
2023-05-05T01:15:37.417Z,16.25
2023-05-05T01:17:44.966Z,16.26
2023-05-05T01:20:10.438Z,16.26
2023-05-05T01:22:16.168Z,16.09
2023-05-05T01:24:39.945Z,15.99
2023-05-05T01:26:56.228Z,16.08
2023-05-05T01:29:28.356Z,16.15
2023-05-05T01:31:53.274Z,16.18
2023-05-05T01:34:01.625Z,16.16
2023-05-05T01:36:08.750Z,16.13
2023-05-05T01:38:16.149Z,16.15
2023-05-05T01:40:23.701Z,16.13
2023-05-05T01:42:28.068Z,16.14
2023-05-05T01:44:33.787Z,16.13
2023-05-05T01:46:37.369Z,16.14
2023-05-05T01:48:43.597Z,16.13
2023-05-05T01:50:48.687Z,16.08
2023-05-05T01:52:52.648Z,16.06
2023-05-05T01:54:58.784Z,16.02
2023-05-05T01:57:05.075Z,16.01
2023-05-05T01:59:08.173Z,16.01
2023-05-05T02:01:13.327Z,15.98
2023-05-05T02:03:18.189Z,15.97
2023-05-05T02:05:24.730Z,15.94
2023-05-05T02:07:29.006Z,15.91
2023-05-05T02:09:33.439Z,15.86
2023-05-05T02:11:36.505Z,15.83
2023-05-05T02:13:43.049Z,15.78
2023-05-05T02:15:52.279Z,15.76
2023-05-05T02:17:56.355Z,15.71
2023-05-05T02:20:00.991Z,15.71
2023-05-05T02:22:05.095Z,15.61
2023-05-05T02:24:09.004Z,15.64
2023-05-05T02:26:15.189Z,15.63
2023-05-05T02:28:23.476Z,15.63
2023-05-05T02:30:33.174Z,15.60
2023-05-05T02:32:40.511Z,15.59
2023-05-05T02:34:48.255Z,15.54
2023-05-05T02:36:54.576Z,15.52
2023-05-05T02:39:06.390Z,15.53
2023-05-05T02:41:17.661Z,15.51
2023-05-05T02:43:24.096Z,15.47
2023-05-05T02:45:29.432Z,15.43
2023-05-05T02:47:36.447Z,15.41
2023-05-05T02:49:39.494Z,15.39
2023-05-05T02:51:42.308Z,15.40
2023-05-05T02:53:54.166Z,15.39
2023-05-05T02:56:07.127Z,15.36
2023-05-05T02:58:22.854Z,15.31
2023-05-05T03:00:35.300Z,15.25
2023-05-05T03:02:45.926Z,15.24
2023-05-05T03:04:56.390Z,15.24
2023-05-05T03:07:08.164Z,15.24
2023-05-05T03:09:15.188Z,15.24
2023-05-05T03:11:28.481Z,15.23
2023-05-05T03:13:35.771Z,15.14
2023-05-05T03:15:50.716Z,15.10
2023-05-05T03:17:57.607Z,15.06
2023-05-05T03:20:05.388Z,15.06
2023-05-05T03:22:10.897Z,15.09
2023-05-05T03:24:19.202Z,15.06
2023-05-05T03:26:39.456Z,15.01
2023-05-05T03:28:42.313Z,15.00
2023-05-05T03:30:52.850Z,14.97
2023-05-05T03:32:55.953Z,14.95
2023-05-05T03:34:58.861Z,14.92
2023-05-05T03:37:06.964Z,14.95
2023-05-05T03:39:10.700Z,15.01
2023-05-05T03:41:13.890Z,14.98
2023-05-05T03:43:19.483Z,14.97
2023-05-05T03:45:22.623Z,14.99
2023-05-05T03:47:25.706Z,15.01
2023-05-05T03:49:29.943Z,15.01
2023-05-05T03:51:33.537Z,15.03
2023-05-05T03:53:36.683Z,15.00
2023-05-05T03:55:42.326Z,14.93
2023-05-05T03:57:45.892Z,14.99
2023-05-05T03:59:50.009Z,14.97
2023-05-05T04:01:52.833Z,14.93
2023-05-05T04:03:56.256Z,14.92
2023-05-05T04:05:59.274Z,14.91
2023-05-05T04:08:03.232Z,14.92
2023-05-05T04:10:07.436Z,14.91
2023-05-05T04:12:10.664Z,14.87
2023-05-05T04:14:13.928Z,14.83
2023-05-05T04:16:18.424Z,14.81
2023-05-05T04:18:21.351Z,14.80
2023-05-05T04:20:24.183Z,14.81
2023-05-05T04:22:27.034Z,14.79
2023-05-05T04:24:30.112Z,14.79
2023-05-05T04:26:32.946Z,14.78
2023-05-05T04:28:35.833Z,14.82
2023-05-05T04:30:38.839Z,14.86
2023-05-05T04:32:43.083Z,14.88
2023-05-05T04:34:46.816Z,14.82
2023-05-05T04:36:49.618Z,14.83
2023-05-05T04:38:53.051Z,14.84
2023-05-05T04:40:55.930Z,14.86
2023-05-05T04:42:58.765Z,14.86
2023-05-05T04:45:01.821Z,14.86
2023-05-05T04:47:05.850Z,14.85
2023-05-05T04:49:10.052Z,14.89
2023-05-05T04:51:13.207Z,14.92
2023-05-05T04:53:16.792Z,14.96
2023-05-05T04:55:20.117Z,14.99
2023-05-05T04:57:22.988Z,15.05
2023-05-05T04:59:25.914Z,15.15
2023-05-05T05:01:28.734Z,15.22
2023-05-05T05:03:32.118Z,15.26
2023-05-05T05:05:36.495Z,15.28
2023-05-05T05:07:39.341Z,15.39
2023-05-05T05:09:42.260Z,15.40
2023-05-05T05:11:45.091Z,15.47
2023-05-05T05:13:47.895Z,15.57
2023-05-05T05:15:50.803Z,15.53
2023-05-05T05:17:54.494Z,15.53
2023-05-05T05:19:59.201Z,15.48
2023-05-05T05:22:03.363Z,15.35
2023-05-05T05:24:08.450Z,15.40
2023-05-05T05:26:11.309Z,15.48
2023-05-05T05:28:14.301Z,15.57
2023-05-05T05:30:25.060Z,15.64
2023-05-05T05:32:28.217Z,15.65
2023-05-05T05:34:31.401Z,15.69
2023-05-05T05:36:34.699Z,15.73
2023-05-05T05:38:38.866Z,15.77
2023-05-05T05:40:42.005Z,15.77
2023-05-05T05:42:45.229Z,15.79
2023-05-05T05:44:47.971Z,15.82
2023-05-05T05:46:50.914Z,15.84
2023-05-05T05:48:53.804Z,15.88
2023-05-05T05:50:57.099Z,15.95
2023-05-05T05:53:00.697Z,16.05
2023-05-05T05:55:06.747Z,16.12
2023-05-05T05:57:10.345Z,16.11
2023-05-05T05:59:13.174Z,16.15
2023-05-05T06:01:17.152Z,16.14
2023-05-05T06:03:20.970Z,16.18
2023-05-05T06:05:23.915Z,16.26
2023-05-05T06:07:27.771Z,16.26
2023-05-05T06:09:30.621Z,16.31
2023-05-05T06:11:35.050Z,16.33
2023-05-05T06:13:37.803Z,16.30
2023-05-05T06:15:42.202Z,16.42
2023-05-05T06:17:45.744Z,16.47
2023-05-05T06:19:48.599Z,16.57
2023-05-05T06:21:51.770Z,16.62
2023-05-05T06:23:55.047Z,16.66
2023-05-05T06:25:57.931Z,16.71
2023-05-05T06:28:02.107Z,16.77
2023-05-05T06:30:06.750Z,16.86
2023-05-05T06:32:09.787Z,16.88
2023-05-05T06:34:12.530Z,16.93
2023-05-05T06:36:15.347Z,16.97
2023-05-05T06:38:18.151Z,16.93
2023-05-05T06:40:21.013Z,16.96
2023-05-05T06:42:23.948Z,16.97
2023-05-05T06:44:31.001Z,16.98
2023-05-05T06:46:34.154Z,17.02
2023-05-05T06:48:36.995Z,17.09
2023-05-05T06:50:39.876Z,17.00
2023-05-05T06:52:42.684Z,17.04
2023-05-05T06:54:45.482Z,17.15
2023-05-05T06:56:48.280Z,17.11
2023-05-05T06:58:51.512Z,17.22
2023-05-05T07:00:55.781Z,17.37
2023-05-05T07:02:58.622Z,17.47
2023-05-05T07:05:01.537Z,17.53
2023-05-05T07:07:07.444Z,17.54
2023-05-05T07:09:10.412Z,17.61
2023-05-05T07:11:13.234Z,17.64
2023-05-05T07:13:17.381Z,17.74
2023-05-05T07:15:28.671Z,17.79
2023-05-05T07:17:33.896Z,17.93
2023-05-05T07:19:36.770Z,17.92
2023-05-05T07:21:39.700Z,18.00
2023-05-05T07:23:42.561Z,18.08
2023-05-05T07:25:45.438Z,18.20
2023-05-05T07:27:48.203Z,18.26
2023-05-05T07:29:51.222Z,18.32
2023-05-05T07:31:54.082Z,18.45
2023-05-05T07:33:58.288Z,18.58
2023-05-05T07:36:01.110Z,18.71
2023-05-05T07:38:03.896Z,18.78
2023-05-05T07:40:08.394Z,18.90
2023-05-05T07:42:11.225Z,18.93
2023-05-05T07:44:14.033Z,18.89
2023-05-05T07:46:16.884Z,18.90
2023-05-05T07:48:20.010Z,18.91
2023-05-05T07:50:24.893Z,18.89
2023-05-05T07:52:44.176Z,18.83
2023-05-05T07:54:50.850Z,18.91
2023-05-05T07:56:54.021Z,18.80
2023-05-05T07:58:56.822Z,18.76
2023-05-05T08:01:00.795Z,18.80
2023-05-05T08:03:03.956Z,18.83
2023-05-05T08:05:08.098Z,18.80
2023-05-05T08:07:12.536Z,18.83
2023-05-05T08:09:15.434Z,18.86
2023-05-05T08:11:18.377Z,18.86
2023-05-05T08:13:21.354Z,18.86
2023-05-05T08:15:24.160Z,18.93
2023-05-05T08:17:27.141Z,19.05
2023-05-05T08:19:29.966Z,18.99
2023-05-05T08:21:33.922Z,19.08
2023-05-05T08:23:39.062Z,19.19
2023-05-05T08:25:41.873Z,19.32
2023-05-05T08:27:45.952Z,19.43
2023-05-05T08:29:48.955Z,19.70
2023-05-05T08:31:51.942Z,19.96
2023-05-05T08:33:55.166Z,20.20
2023-05-05T08:35:59.936Z,20.41
2023-05-05T08:38:02.859Z,20.52
2023-05-05T08:40:08.521Z,20.61
2023-05-05T08:42:11.792Z,20.69
2023-05-05T08:44:16.106Z,20.87
2023-05-05T08:46:19.162Z,20.97
2023-05-05T08:48:24.925Z,21.02
2023-05-05T08:50:29.916Z,21.15
2023-05-05T08:52:39.562Z,21.28
2023-05-05T08:54:51.323Z,21.43
2023-05-05T08:56:59.645Z,21.61
2023-05-05T08:59:03.711Z,21.81
2023-05-05T09:01:08.207Z,21.88
2023-05-05T09:03:12.199Z,21.97
2023-05-05T09:05:15.327Z,22.10
2023-05-05T09:07:18.360Z,22.20
2023-05-05T09:09:21.406Z,22.27
2023-05-05T09:11:24.321Z,22.41
2023-05-05T09:13:28.684Z,22.54
2023-05-05T09:15:32.905Z,22.48
2023-05-05T09:17:35.810Z,22.58
2023-05-05T09:19:57.313Z,22.65
2023-05-05T09:22:00.370Z,22.78
2023-05-05T09:24:11.258Z,22.82
2023-05-05T09:26:14.445Z,22.75
2023-05-05T09:28:18.977Z,22.70
2023-05-05T09:30:26.914Z,22.89
2023-05-05T09:32:30.653Z,22.89
2023-05-05T09:34:35.350Z,22.94
2023-05-05T09:36:48.832Z,23.05
2023-05-05T09:39:06.225Z,23.23
2023-05-05T09:41:09.289Z,23.35
2023-05-05T09:43:12.338Z,23.44
2023-05-05T09:45:28.741Z,23.40
2023-05-05T09:47:35.593Z,23.40
2023-05-05T09:49:39.070Z,23.46
2023-05-05T09:51:41.998Z,23.58
2023-05-05T09:53:44.999Z,23.69
2023-05-05T09:55:55.596Z,23.80
2023-05-05T09:57:58.539Z,23.91
2023-05-05T10:00:04.126Z,23.79
2023-05-05T10:02:14.357Z,23.38
2023-05-05T10:04:25.537Z,23.11
2023-05-05T10:06:41.532Z,23.01
2023-05-05T10:08:44.296Z,23.19
2023-05-05T10:10:55.433Z,23.28
2023-05-05T10:12:58.548Z,23.37
2023-05-05T10:15:03.565Z,23.69
2023-05-05T10:17:08.033Z,23.70
2023-05-05T10:19:14.236Z,23.56
2023-05-05T10:21:21.011Z,23.39
2023-05-05T10:23:25.241Z,23.28
2023-05-05T10:25:31.478Z,23.25
2023-05-05T10:27:43.190Z,23.44
2023-05-05T10:29:53.190Z,23.69
2023-05-05T10:32:21.501Z,23.77
2023-05-05T10:34:36.256Z,24.06
2023-05-05T10:37:00.181Z,24.21
2023-05-05T10:39:06.689Z,24.21
2023-05-05T10:41:12.093Z,24.21
2023-05-05T10:43:15.281Z,24.15
2023-05-05T10:45:18.136Z,24.16
2023-05-05T10:47:23.167Z,24.18
2023-05-05T10:49:41.868Z,24.15
2023-05-05T10:51:54.533Z,24.00
2023-05-05T10:54:01.381Z,24.01
2023-05-05T10:56:11.599Z,24.01
2023-05-05T10:58:35.040Z,23.88
2023-05-05T11:00:50.783Z,23.88
2023-05-05T11:03:23.532Z,23.72
2023-05-05T11:05:27.762Z,23.78
2023-05-05T11:07:30.624Z,23.63
2023-05-05T11:09:37.045Z,23.68
2023-05-05T11:12:05.355Z,23.90
2023-05-05T11:14:22.273Z,23.91
2023-05-05T11:16:45.455Z,23.75
2023-05-05T11:18:48.349Z,23.78
2023-05-05T11:21:18.207Z,23.70
2023-05-05T11:23:24.305Z,23.61
2023-05-05T11:25:51.246Z,23.43
2023-05-05T11:28:07.001Z,23.31
2023-05-05T11:30:11.505Z,23.28
2023-05-05T11:32:15.638Z,23.27
2023-05-05T11:34:28.782Z,23.33
2023-05-05T11:36:41.999Z,23.27
2023-05-05T11:39:02.578Z,23.47
2023-05-05T11:41:13.336Z,23.51
2023-05-05T11:43:19.656Z,23.66
2023-05-05T11:45:23.934Z,23.59
2023-05-05T11:47:30.835Z,23.46
2023-05-05T11:49:35.398Z,23.68
2023-05-05T11:51:38.800Z,23.79
2023-05-05T11:53:45.035Z,23.97
2023-05-05T11:55:47.863Z,24.22
2023-05-05T11:57:50.825Z,24.20
2023-05-05T11:59:56.169Z,24.39
2023-05-05T12:01:59.407Z,24.39
2023-05-05T12:04:02.527Z,24.45
2023-05-05T12:06:06.934Z,24.50
2023-05-05T12:08:10.260Z,24.61
2023-05-05T12:10:14.520Z,24.69
2023-05-05T12:12:18.467Z,24.68
2023-05-05T12:14:22.055Z,24.67
2023-05-05T12:16:24.927Z,24.64
2023-05-05T12:18:28.213Z,24.37
2023-05-05T12:20:32.540Z,24.31
2023-05-05T12:22:35.343Z,24.33
2023-05-05T12:24:38.185Z,24.09
2023-05-05T12:26:42.741Z,23.85
2023-05-05T12:28:47.137Z,23.76
2023-05-05T12:30:56.841Z,23.68
2023-05-05T12:33:03.797Z,23.75
2023-05-05T12:35:08.052Z,23.81
2023-05-05T12:37:12.411Z,23.84
2023-05-05T12:39:15.285Z,23.74
2023-05-05T12:41:21.231Z,23.66
2023-05-05T12:43:28.487Z,23.65
2023-05-05T12:45:31.352Z,23.60
2023-05-05T12:47:35.539Z,23.62
2023-05-05T12:49:51.559Z,23.57
2023-05-05T12:51:55.637Z,23.66
2023-05-05T12:54:07.191Z,23.47
2023-05-05T12:56:35.025Z,23.48
2023-05-05T12:58:52.061Z,23.66
2023-05-05T13:01:08.990Z,23.79
2023-05-05T13:03:20.276Z,23.91
2023-05-05T13:05:32.820Z,24.05
2023-05-05T13:07:35.701Z,23.97
2023-05-05T13:09:38.677Z,24.02
2023-05-05T13:11:41.563Z,24.24
2023-05-05T13:13:44.326Z,24.18
2023-05-05T13:15:48.472Z,24.25
2023-05-05T13:17:51.338Z,24.30
2023-05-05T13:19:54.170Z,24.48
2023-05-05T13:21:58.071Z,24.68
2023-05-05T13:24:12.494Z,24.87
2023-05-05T13:26:24.783Z,24.93
2023-05-05T13:28:27.572Z,25.01
2023-05-05T13:30:30.360Z,25.09
2023-05-05T13:32:34.575Z,25.22
2023-05-05T13:34:38.907Z,24.88
2023-05-05T13:36:41.528Z,24.78
2023-05-05T13:38:44.273Z,24.66
2023-05-05T13:40:47.007Z,24.63
2023-05-05T13:42:49.847Z,24.62
2023-05-05T13:44:52.740Z,24.71
2023-05-05T13:46:55.521Z,24.46
2023-05-05T13:48:59.626Z,24.25
2023-05-05T13:51:02.474Z,24.26
2023-05-05T13:53:05.283Z,24.38
2023-05-05T13:55:09.130Z,24.50
2023-05-05T13:57:12.357Z,24.53
2023-05-05T13:59:15.178Z,24.56
2023-05-05T14:01:17.998Z,24.67
2023-05-05T14:03:20.848Z,24.81
2023-05-05T14:05:25.048Z,24.79
2023-05-05T14:07:28.003Z,24.84
2023-05-05T14:09:30.791Z,24.69
2023-05-05T14:11:33.651Z,24.81
2023-05-05T14:13:36.610Z,24.77
2023-05-05T14:15:39.407Z,24.82
2023-05-05T14:17:42.234Z,24.95
2023-05-05T14:19:45.436Z,24.95
2023-05-05T14:21:49.519Z,24.94
2023-05-05T14:23:52.428Z,24.93
2023-05-05T14:25:55.224Z,24.68
2023-05-05T14:27:58.006Z,24.73
2023-05-05T14:30:00.850Z,24.60
2023-05-05T14:32:03.751Z,24.46
2023-05-05T14:34:06.663Z,24.34
2023-05-05T14:36:09.951Z,24.18
2023-05-05T14:38:14.137Z,24.13
2023-05-05T14:40:16.837Z,23.97
2023-05-05T14:42:19.596Z,23.69
2023-05-05T14:44:22.411Z,23.69
2023-05-05T14:46:26.100Z,23.60
2023-05-05T14:48:28.940Z,23.63
2023-05-05T14:50:31.758Z,23.53
2023-05-05T14:52:34.602Z,23.49
2023-05-05T14:54:38.777Z,23.53
2023-05-05T14:56:41.728Z,23.61
2023-05-05T14:58:44.623Z,23.45
2023-05-05T15:00:47.455Z,23.31
2023-05-05T15:02:50.348Z,23.31
2023-05-05T15:04:53.543Z,23.27
2023-05-05T15:06:56.537Z,23.29
2023-05-05T15:08:59.335Z,23.28
2023-05-05T15:11:04.181Z,23.21
2023-05-05T15:13:06.995Z,23.10
2023-05-05T15:15:10.746Z,22.87
2023-05-05T15:17:13.812Z,22.82
2023-05-05T15:19:16.569Z,22.49
2023-05-05T15:21:19.317Z,22.26
2023-05-05T15:23:22.061Z,22.15
2023-05-05T15:25:25.111Z,22.06
2023-05-05T15:27:30.074Z,22.18
2023-05-05T15:29:33.026Z,22.19
2023-05-05T15:31:35.901Z,22.07
2023-05-05T15:33:39.269Z,21.96
2023-05-05T15:35:42.020Z,21.93
2023-05-05T15:37:44.932Z,21.88
2023-05-05T15:39:47.788Z,21.81
2023-05-05T15:41:50.592Z,21.75
2023-05-05T15:43:54.726Z,21.74
2023-05-05T15:45:57.494Z,21.78
2023-05-05T15:48:00.329Z,21.76
2023-05-05T15:50:03.299Z,21.68
2023-05-05T15:52:06.381Z,21.71
2023-05-05T15:54:09.160Z,21.79
2023-05-05T15:56:11.958Z,21.73
2023-05-05T15:58:14.702Z,21.60
2023-05-05T16:00:19.058Z,21.39
2023-05-05T16:02:23.847Z,21.21
2023-05-05T16:04:26.814Z,21.04
2023-05-05T16:06:29.918Z,21.00
2023-05-05T16:08:32.682Z,20.93
2023-05-05T16:10:36.195Z,20.78
2023-05-05T16:12:38.958Z,20.23
2023-05-05T16:14:41.848Z,19.75
2023-05-05T16:16:46.011Z,19.44
2023-05-05T16:18:50.113Z,19.40
2023-05-05T16:20:52.892Z,19.23
2023-05-05T16:22:55.899Z,19.19
2023-05-05T16:24:58.699Z,19.15
2023-05-05T16:27:01.474Z,19.19
2023-05-05T16:29:04.317Z,19.21
2023-05-05T16:31:09.462Z,19.27
2023-05-05T16:33:13.720Z,19.32
2023-05-05T16:35:16.547Z,19.38
2023-05-05T16:37:19.348Z,19.43
2023-05-05T16:39:22.100Z,19.48
2023-05-05T16:41:25.957Z,19.43
2023-05-05T16:43:28.829Z,19.40
2023-05-05T16:45:31.592Z,19.41
2023-05-05T16:47:34.421Z,19.42
2023-05-05T16:49:38.595Z,19.44
2023-05-05T16:51:41.352Z,19.40
2023-05-05T16:53:44.147Z,19.43
2023-05-05T16:55:50.905Z,19.50
2023-05-05T16:57:53.786Z,19.46
2023-05-05T16:59:56.931Z,19.47
2023-05-05T17:01:59.813Z,19.44
2023-05-05T17:04:02.679Z,19.41
2023-05-05T17:06:07.339Z,19.41
2023-05-05T17:08:11.185Z,19.40
2023-05-05T17:10:13.946Z,19.37
2023-05-05T17:12:16.799Z,19.42
2023-05-05T17:14:19.603Z,19.40
2023-05-05T17:16:22.598Z,19.38
2023-05-05T17:18:25.898Z,19.37
2023-05-05T17:20:28.820Z,19.35
2023-05-05T17:22:32.981Z,19.37
2023-05-05T17:24:35.780Z,19.36
2023-05-05T17:26:39.695Z,19.33
2023-05-05T17:28:42.555Z,19.30
2023-05-05T17:30:45.494Z,19.26
2023-05-05T17:32:48.661Z,19.23
2023-05-05T17:34:51.513Z,19.23
2023-05-05T17:36:54.265Z,19.21
2023-05-05T17:38:58.431Z,19.17
2023-05-05T17:41:01.613Z,19.12
2023-05-05T17:43:04.474Z,19.12
2023-05-05T17:45:08.722Z,19.11
2023-05-05T17:47:11.591Z,18.98
2023-05-05T17:49:14.455Z,18.99
2023-05-05T17:51:17.261Z,19.00
2023-05-05T17:53:20.023Z,19.03
2023-05-05T17:55:24.171Z,19.06
2023-05-05T17:57:27.004Z,19.04
2023-05-05T17:59:29.834Z,19.03
2023-05-05T18:01:32.705Z,18.99
2023-05-05T18:03:36.805Z,18.95
2023-05-05T18:05:40.808Z,18.90
2023-05-05T18:07:43.621Z,18.86
2023-05-05T18:09:46.427Z,18.80
2023-05-05T18:11:52.552Z,18.82
2023-05-05T18:13:55.799Z,18.78
2023-05-05T18:15:58.658Z,18.77
2023-05-05T18:18:01.597Z,18.76
2023-05-05T18:20:06.834Z,18.75
2023-05-05T18:22:09.610Z,18.73
2023-05-05T18:26:21.215Z,18.67
2023-05-05T18:28:25.394Z,18.69
2023-05-05T18:30:28.133Z,18.65
2023-05-05T18:32:31.259Z,18.65
2023-05-05T18:34:34.135Z,18.67
2023-05-05T18:36:36.941Z,18.59
2023-05-05T18:38:39.670Z,18.56
2023-05-05T18:40:42.556Z,18.54
2023-05-05T18:42:45.330Z,18.57
2023-05-05T18:44:49.452Z,18.52
2023-05-05T18:46:52.379Z,18.48
2023-05-05T18:48:55.205Z,18.47
2023-05-05T18:51:02.168Z,18.42
2023-05-05T18:53:04.968Z,18.38
2023-05-05T18:55:08.352Z,18.41
2023-05-05T18:57:11.327Z,18.41
2023-05-05T18:59:14.074Z,18.42
2023-05-05T19:01:18.359Z,18.41
2023-05-05T19:03:22.049Z,18.39
2023-05-05T19:05:24.949Z,18.38
2023-05-05T19:07:35.062Z,18.35
2023-05-05T19:09:38.614Z,18.31
2023-05-05T19:11:42.836Z,18.30
2023-05-05T19:13:45.786Z,18.23
2023-05-05T19:15:49.205Z,18.16
2023-05-05T19:17:53.617Z,18.13
2023-05-05T19:19:56.325Z,18.00
2023-05-05T19:21:59.947Z,17.98
2023-05-05T19:24:03.466Z,18.00
2023-05-05T19:26:06.785Z,18.02
2023-05-05T19:28:10.660Z,18.03
2023-05-05T19:30:13.788Z,18.05
2023-05-05T19:32:16.838Z,18.05
2023-05-05T19:34:21.389Z,18.04
2023-05-05T19:36:24.137Z,17.94
2023-05-05T19:38:27.626Z,18.02
2023-05-05T19:40:30.605Z,18.04
2023-05-05T19:43:23.608Z,18.12
2023-05-05T19:45:26.461Z,18.06
2023-05-05T19:47:29.280Z,18.03
2023-05-05T19:49:33.436Z,18.01
2023-05-05T19:51:36.276Z,17.96
2023-05-05T19:53:40.025Z,17.95
2023-05-05T19:55:42.811Z,17.93
2023-05-05T19:57:45.604Z,17.92
2023-05-05T19:59:49.531Z,17.93
2023-05-05T20:01:52.400Z,17.90
2023-05-05T20:03:57.002Z,17.81
2023-05-05T20:06:01.396Z,17.81
2023-05-05T20:08:04.228Z,17.83
2023-05-05T20:10:08.302Z,17.77
2023-05-05T20:12:12.143Z,17.76
2023-05-05T20:14:15.061Z,17.80
2023-05-05T20:16:18.159Z,17.79
2023-05-05T20:18:21.066Z,17.80
2023-05-05T20:20:23.935Z,17.83
2023-05-05T20:22:28.057Z,17.84
2023-05-05T20:24:31.355Z,17.83
2023-05-05T20:26:34.349Z,17.79
2023-05-05T20:28:38.999Z,17.77
2023-05-05T20:30:41.796Z,17.75
2023-05-05T20:32:44.594Z,17.75
2023-05-05T20:34:47.515Z,17.73
2023-05-05T20:36:50.666Z,17.71
2023-05-05T20:38:55.007Z,17.69
2023-05-05T20:40:57.790Z,17.65
2023-05-05T20:43:00.532Z,17.59
2023-05-05T20:45:03.480Z,17.59
2023-05-05T20:47:06.761Z,17.57
2023-05-05T20:49:09.739Z,17.55
2023-05-05T20:51:12.544Z,17.53
2023-05-05T20:53:15.512Z,17.52
2023-05-05T20:55:19.789Z,17.50
2023-05-05T20:57:22.608Z,17.45
2023-05-05T20:59:27.939Z,17.44
2023-05-05T21:01:30.959Z,17.42
2023-05-05T21:03:33.845Z,17.41
2023-05-05T21:05:37.151Z,17.33
2023-05-05T21:07:39.880Z,17.31
2023-05-05T21:09:42.856Z,17.30
2023-05-05T21:11:47.152Z,17.30
2023-05-05T21:13:49.927Z,17.25
2023-05-05T21:15:52.706Z,17.23
2023-05-05T21:17:56.144Z,17.19
2023-05-05T21:19:58.960Z,17.20
2023-05-05T21:22:02.171Z,17.18
2023-05-05T21:24:07.671Z,17.16
2023-05-05T21:26:10.793Z,17.16
2023-05-05T21:28:14.959Z,17.13
2023-05-05T21:30:18.273Z,17.08
2023-05-05T21:32:21.332Z,17.05
2023-05-05T21:34:24.150Z,17.04
2023-05-05T21:36:27.260Z,17.03
2023-05-05T21:38:30.061Z,17.02
2023-05-05T21:40:32.888Z,16.98
2023-05-05T21:42:35.674Z,16.95
2023-05-05T21:44:39.865Z,16.95
2023-05-05T21:46:42.869Z,16.92
2023-05-05T21:48:48.119Z,16.87
2023-05-05T21:50:50.957Z,16.82
2023-05-05T21:52:53.730Z,16.80
2023-05-05T21:54:56.565Z,16.79
2023-05-05T21:57:00.142Z,16.77
2023-05-05T21:59:03.773Z,16.74
2023-05-05T22:01:08.100Z,16.73
2023-05-05T22:03:11.012Z,16.68
2023-05-05T22:05:13.885Z,16.63
2023-05-05T22:07:16.690Z,16.60
2023-05-05T22:09:19.448Z,16.56
2023-05-05T22:11:22.269Z,16.55
2023-05-05T22:13:25.081Z,16.55
2023-05-05T22:15:32.824Z,16.54
2023-05-05T22:17:43.265Z,16.54
2023-05-05T22:19:46.076Z,16.51
2023-05-05T22:21:48.909Z,16.49
2023-05-05T22:23:51.693Z,16.50
2023-05-05T22:25:54.657Z,16.49
2023-05-05T22:27:57.394Z,16.47
2023-05-05T22:30:00.302Z,16.39
2023-05-05T22:32:03.066Z,16.28
2023-05-05T22:34:07.155Z,16.20
2023-05-05T22:36:11.484Z,16.23
2023-05-05T22:38:14.346Z,16.25
2023-05-05T22:40:17.249Z,16.28
2023-05-05T22:42:20.031Z,16.29
2023-05-05T22:44:22.738Z,16.30
2023-05-05T22:46:25.735Z,16.29
2023-05-05T22:48:29.787Z,16.29
2023-05-05T22:50:34.049Z,16.28
2023-05-05T22:52:36.789Z,16.26
2023-05-05T22:54:39.623Z,16.27
2023-05-05T22:56:42.411Z,16.23
2023-05-05T22:58:46.395Z,16.19
2023-05-05T23:00:49.182Z,16.19
2023-05-05T23:02:52.171Z,16.16
2023-05-05T23:04:55.801Z,16.15
2023-05-05T23:06:59.922Z,16.12
2023-05-05T23:09:02.686Z,16.07
2023-05-05T23:11:05.661Z,16.02
2023-05-05T23:13:08.563Z,15.99
2023-05-05T23:15:12.395Z,15.96
2023-05-05T23:17:15.512Z,15.91
2023-05-05T23:19:18.292Z,15.86
2023-05-05T23:21:21.200Z,15.83
2023-05-05T23:23:25.327Z,15.82
2023-05-05T23:25:28.122Z,15.78
2023-05-05T23:27:30.924Z,15.79
2023-05-05T23:29:33.764Z,15.78
2023-05-05T23:31:36.526Z,15.76
2023-05-05T23:33:39.294Z,15.76
2023-05-05T23:35:43.328Z,15.77
2023-05-05T23:37:46.096Z,15.75
2023-05-05T23:39:50.271Z,15.76
2023-05-05T23:41:53.110Z,15.68
2023-05-05T23:43:55.876Z,15.65
2023-05-05T23:45:58.707Z,15.66
2023-05-05T23:48:01.529Z,15.67
2023-05-05T23:50:04.739Z,15.67
2023-05-05T23:52:07.500Z,15.65
2023-05-05T23:54:10.283Z,15.62
2023-05-05T23:56:14.460Z,15.57
2023-05-05T23:58:17.273Z,15.57
